sensor_id;sensor_type;location;lat;lon;timestamp;temperature;humidity
35796;DHT22;21916;52.428;13.302;2023-07-20T00:01:48;16.20;99.90
35796;DHT22;21916;52.428;13.302;2023-07-20T00:04:14;16.20;99.90
35796;DHT22;21916;52.428;13.302;2023-07-20T00:06:40;16.20;99.90
35796;DHT22;21916;52.428;13.302;2023-07-20T00:09:09;16.20;99.90
35796;DHT22;21916;52.428;13.302;2023-07-20T00:11:36;16.20;99.90
35796;DHT22;21916;52.428;13.302;2023-07-20T00:14:06;16.20;99.90
35796;DHT22;21916;52.428;13.302;2023-07-20T00:16:32;16.10;99.90
35796;DHT22;21916;52.428;13.302;2023-07-20T00:18:58;16.10;99.90
35796;DHT22;21916;52.428;13.302;2023-07-20T00:21:24;16.10;99.90
35796;DHT22;21916;52.428;13.302;2023-07-20T00:23:50;16.00;99.90
35796;DHT22;21916;52.428;13.302;2023-07-20T00:26:15;16.00;99.90
35796;DHT22;21916;52.428;13.302;2023-07-20T00:28:42;16.00;99.90
35796;DHT22;21916;52.428;13.302;2023-07-20T00:31:08;16.00;99.90
35796;DHT22;21916;52.428;13.302;2023-07-20T00:33:36;16.00;99.90
35796;DHT22;21916;52.428;13.302;2023-07-20T00:36:02;15.90;99.90
35796;DHT22;21916;52.428;13.302;2023-07-20T00:38:28;16.00;99.90
35796;DHT22;21916;52.428;13.302;2023-07-20T00:40:54;16.00;99.90
35796;DHT22;21916;52.428;13.302;2023-07-20T00:43:19;16.00;99.90
35796;DHT22;21916;52.428;13.302;2023-07-20T00:45:45;15.90;99.90
35796;DHT22;21916;52.428;13.302;2023-07-20T00:48:13;15.80;99.90
35796;DHT22;21916;52.428;13.302;2023-07-20T00:50:40;15.80;99.90
35796;DHT22;21916;52.428;13.302;2023-07-20T00:53:06;15.70;99.90
35796;DHT22;21916;52.428;13.302;2023-07-20T00:55:33;15.70;99.90
35796;DHT22;21916;52.428;13.302;2023-07-20T00:58:00;15.80;99.90
35796;DHT22;21916;52.428;13.302;2023-07-20T01:00:26;15.70;99.90
35796;DHT22;21916;52.428;13.302;2023-07-20T01:02:53;15.70;99.90
35796;DHT22;21916;52.428;13.302;2023-07-20T01:05:21;15.70;99.90
35796;DHT22;21916;52.428;13.302;2023-07-20T01:07:58;15.60;99.90
35796;DHT22;21916;52.428;13.302;2023-07-20T01:10:36;15.60;99.90
35796;DHT22;21916;52.428;13.302;2023-07-20T01:13:06;15.70;99.90
35796;DHT22;21916;52.428;13.302;2023-07-20T01:15:36;15.60;99.90
35796;DHT22;21916;52.428;13.302;2023-07-20T01:18:01;15.60;99.90
35796;DHT22;21916;52.428;13.302;2023-07-20T01:20:31;15.60;99.90
35796;DHT22;21916;52.428;13.302;2023-07-20T01:26:49;15.60;99.90
35796;DHT22;21916;52.428;13.302;2023-07-20T01:32:06;15.60;99.90
35796;DHT22;21916;52.428;13.302;2023-07-20T01:34:34;15.60;99.90
35796;DHT22;21916;52.428;13.302;2023-07-20T01:37:03;15.60;99.90
35796;DHT22;21916;52.428;13.302;2023-07-20T01:39:31;15.60;99.90
35796;DHT22;21916;52.428;13.302;2023-07-20T01:41:59;15.60;99.90
35796;DHT22;21916;52.428;13.302;2023-07-20T01:44:25;15.60;99.90
35796;DHT22;21916;52.428;13.302;2023-07-20T01:46:52;15.60;99.90
35796;DHT22;21916;52.428;13.302;2023-07-20T01:49:18;15.60;99.90
35796;DHT22;21916;52.428;13.302;2023-07-20T01:51:44;15.60;99.90
35796;DHT22;21916;52.428;13.302;2023-07-20T01:54:10;15.60;99.90
35796;DHT22;21916;52.428;13.302;2023-07-20T01:56:35;15.60;99.90
35796;DHT22;21916;52.428;13.302;2023-07-20T01:59:01;15.60;99.90
35796;DHT22;21916;52.428;13.302;2023-07-20T02:01:27;15.60;99.90
35796;DHT22;21916;52.428;13.302;2023-07-20T02:03:54;15.50;99.90
35796;DHT22;21916;52.428;13.302;2023-07-20T02:06:20;15.50;99.90
35796;DHT22;21916;52.428;13.302;2023-07-20T02:08:48;15.50;99.90
35796;DHT22;21916;52.428;13.302;2023-07-20T02:11:14;15.40;99.90
35796;DHT22;21916;52.428;13.302;2023-07-20T02:13:40;15.40;99.90
35796;DHT22;21916;52.428;13.302;2023-07-20T02:16:06;15.30;99.90
35796;DHT22;21916;52.428;13.302;2023-07-20T02:18:32;15.30;99.90
35796;DHT22;21916;52.428;13.302;2023-07-20T02:20:58;15.20;99.90
35796;DHT22;21916;52.428;13.302;2023-07-20T02:23:24;15.20;99.90
35796;DHT22;21916;52.428;13.302;2023-07-20T02:25:50;15.10;99.90
35796;DHT22;21916;52.428;13.302;2023-07-20T02:28:16;15.10;99.90
35796;DHT22;21916;52.428;13.302;2023-07-20T02:30:42;15.10;99.90
35796;DHT22;21916;52.428;13.302;2023-07-20T02:33:09;15.10;99.90
35796;DHT22;21916;52.428;13.302;2023-07-20T02:35:36;15.00;99.90
35796;DHT22;21916;52.428;13.302;2023-07-20T02:38:02;15.00;99.90
35796;DHT22;21916;52.428;13.302;2023-07-20T02:40:28;15.00;99.90
35796;DHT22;21916;52.428;13.302;2023-07-20T02:42:54;15.00;99.90
35796;DHT22;21916;52.428;13.302;2023-07-20T02:45:20;15.00;99.90
35796;DHT22;21916;52.428;13.302;2023-07-20T02:47:46;15.10;99.90
35796;DHT22;21916;52.428;13.302;2023-07-20T02:50:12;15.00;99.90
35796;DHT22;21916;52.428;13.302;2023-07-20T02:52:39;15.10;99.90
35796;DHT22;21916;52.428;13.302;2023-07-20T02:55:06;15.10;99.90
35796;DHT22;21916;52.428;13.302;2023-07-20T02:57:32;15.10;99.90
35796;DHT22;21916;52.428;13.302;2023-07-20T02:59:57;15.10;99.90
35796;DHT22;21916;52.428;13.302;2023-07-20T03:02:23;15.10;99.90
35796;DHT22;21916;52.428;13.302;2023-07-20T03:04:49;15.10;99.90
35796;DHT22;21916;52.428;13.302;2023-07-20T03:07:15;15.10;99.90
35796;DHT22;21916;52.428;13.302;2023-07-20T03:09:41;15.10;99.90
35796;DHT22;21916;52.428;13.302;2023-07-20T03:12:07;15.10;99.90
35796;DHT22;21916;52.428;13.302;2023-07-20T03:14:34;15.20;99.90
35796;DHT22;21916;52.428;13.302;2023-07-20T03:17:00;15.20;99.90
35796;DHT22;21916;52.428;13.302;2023-07-20T03:19:26;15.20;99.90
35796;DHT22;21916;52.428;13.302;2023-07-20T03:21:52;15.20;99.90
35796;DHT22;21916;52.428;13.302;2023-07-20T03:24:18;15.30;99.90
35796;DHT22;21916;52.428;13.302;2023-07-20T03:26:46;15.30;99.90
35796;DHT22;21916;52.428;13.302;2023-07-20T03:29:12;15.30;99.90
35796;DHT22;21916;52.428;13.302;2023-07-20T03:31:38;15.30;99.90
35796;DHT22;21916;52.428;13.302;2023-07-20T03:34:05;15.30;99.90
35796;DHT22;21916;52.428;13.302;2023-07-20T03:36:33;15.40;99.90
35796;DHT22;21916;52.428;13.302;2023-07-20T03:38:59;15.40;99.90
35796;DHT22;21916;52.428;13.302;2023-07-20T03:41:25;15.40;99.90
35796;DHT22;21916;52.428;13.302;2023-07-20T03:43:51;15.40;99.90
35796;DHT22;21916;52.428;13.302;2023-07-20T03:46:18;15.40;99.90
35796;DHT22;21916;52.428;13.302;2023-07-20T03:48:44;15.50;99.90
35796;DHT22;21916;52.428;13.302;2023-07-20T03:51:10;15.40;99.90
35796;DHT22;21916;52.428;13.302;2023-07-20T03:53:36;15.50;99.90
35796;DHT22;21916;52.428;13.302;2023-07-20T03:56:02;15.40;99.90
35796;DHT22;21916;52.428;13.302;2023-07-20T03:58:28;15.50;99.90
35796;DHT22;21916;52.428;13.302;2023-07-20T04:00:57;15.40;99.90
35796;DHT22;21916;52.428;13.302;2023-07-20T04:03:23;15.40;99.90
35796;DHT22;21916;52.428;13.302;2023-07-20T04:05:54;15.40;99.90
35796;DHT22;21916;52.428;13.302;2023-07-20T04:08:23;15.40;99.90
35796;DHT22;21916;52.428;13.302;2023-07-20T04:10:49;15.40;99.90
35796;DHT22;21916;52.428;13.302;2023-07-20T04:13:15;15.50;99.90
35796;DHT22;21916;52.428;13.302;2023-07-20T04:15:42;15.50;99.90
35796;DHT22;21916;52.428;13.302;2023-07-20T04:18:08;15.40;99.90
35796;DHT22;21916;52.428;13.302;2023-07-20T04:20:34;15.50;99.90
35796;DHT22;21916;52.428;13.302;2023-07-20T04:23:02;15.60;99.90
35796;DHT22;21916;52.428;13.302;2023-07-20T04:25:29;15.60;99.90
35796;DHT22;21916;52.428;13.302;2023-07-20T04:27:55;15.60;99.90
35796;DHT22;21916;52.428;13.302;2023-07-20T04:30:21;15.60;99.90
35796;DHT22;21916;52.428;13.302;2023-07-20T04:32:48;15.60;99.90
35796;DHT22;21916;52.428;13.302;2023-07-20T04:35:52;15.60;99.90
35796;DHT22;21916;52.428;13.302;2023-07-20T04:38:24;15.40;99.90
35796;DHT22;21916;52.428;13.302;2023-07-20T04:40:58;15.50;99.90
35796;DHT22;21916;52.428;13.302;2023-07-20T04:43:24;15.60;99.90
35796;DHT22;21916;52.428;13.302;2023-07-20T04:45:51;15.50;99.90
35796;DHT22;21916;52.428;13.302;2023-07-20T04:48:17;15.40;99.90
35796;DHT22;21916;52.428;13.302;2023-07-20T04:50:50;15.40;99.90
35796;DHT22;21916;52.428;13.302;2023-07-20T04:53:16;15.40;99.90
35796;DHT22;21916;52.428;13.302;2023-07-20T04:55:48;15.50;99.90
35796;DHT22;21916;52.428;13.302;2023-07-20T04:58:19;15.50;99.90
35796;DHT22;21916;52.428;13.302;2023-07-20T05:00:45;15.50;99.90
35796;DHT22;21916;52.428;13.302;2023-07-20T05:03:11;15.70;99.90
35796;DHT22;21916;52.428;13.302;2023-07-20T05:05:37;15.60;99.90
35796;DHT22;21916;52.428;13.302;2023-07-20T05:08:04;15.60;99.90
35796;DHT22;21916;52.428;13.302;2023-07-20T05:10:30;15.60;99.90
35796;DHT22;21916;52.428;13.302;2023-07-20T05:12:56;15.50;99.90
35796;DHT22;21916;52.428;13.302;2023-07-20T05:15:22;15.60;99.90
35796;DHT22;21916;52.428;13.302;2023-07-20T05:17:48;15.60;99.90
35796;DHT22;21916;52.428;13.302;2023-07-20T05:20:14;15.70;99.90
35796;DHT22;21916;52.428;13.302;2023-07-20T05:22:40;15.70;99.90
35796;DHT22;21916;52.428;13.302;2023-07-20T05:25:07;15.90;99.90
35796;DHT22;21916;52.428;13.302;2023-07-20T05:27:36;15.90;99.90
35796;DHT22;21916;52.428;13.302;2023-07-20T05:30:02;16.00;99.90
35796;DHT22;21916;52.428;13.302;2023-07-20T05:32:30;15.90;99.90
35796;DHT22;21916;52.428;13.302;2023-07-20T05:34:56;16.00;99.90
35796;DHT22;21916;52.428;13.302;2023-07-20T05:37:22;16.00;99.90
35796;DHT22;21916;52.428;13.302;2023-07-20T05:39:48;16.00;99.90
35796;DHT22;21916;52.428;13.302;2023-07-20T05:42:14;16.00;99.90
35796;DHT22;21916;52.428;13.302;2023-07-20T05:44:40;16.10;99.90
35796;DHT22;21916;52.428;13.302;2023-07-20T05:47:06;16.10;99.90
35796;DHT22;21916;52.428;13.302;2023-07-20T05:49:32;16.10;99.90
35796;DHT22;21916;52.428;13.302;2023-07-20T05:51:58;16.10;99.90
35796;DHT22;21916;52.428;13.302;2023-07-20T05:54:24;16.10;99.90
35796;DHT22;21916;52.428;13.302;2023-07-20T05:56:51;16.30;99.90
35796;DHT22;21916;52.428;13.302;2023-07-20T05:59:17;16.30;99.90
35796;DHT22;21916;52.428;13.302;2023-07-20T06:01:43;16.30;99.90
35796;DHT22;21916;52.428;13.302;2023-07-20T06:04:09;16.30;99.90
35796;DHT22;21916;52.428;13.302;2023-07-20T06:06:35;16.40;99.90
35796;DHT22;21916;52.428;13.302;2023-07-20T06:09:02;16.50;99.90
35796;DHT22;21916;52.428;13.302;2023-07-20T06:11:30;16.60;99.90
35796;DHT22;21916;52.428;13.302;2023-07-20T06:13:57;16.60;99.90
35796;DHT22;21916;52.428;13.302;2023-07-20T06:16:23;16.60;99.90
35796;DHT22;21916;52.428;13.302;2023-07-20T06:18:48;16.50;99.90
35796;DHT22;21916;52.428;13.302;2023-07-20T06:21:15;16.50;99.90
35796;DHT22;21916;52.428;13.302;2023-07-20T06:23:41;16.50;99.90
35796;DHT22;21916;52.428;13.302;2023-07-20T06:26:07;16.50;99.90
35796;DHT22;21916;52.428;13.302;2023-07-20T06:28:34;16.50;99.90
35796;DHT22;21916;52.428;13.302;2023-07-20T06:31:01;16.70;99.90
35796;DHT22;21916;52.428;13.302;2023-07-20T06:33:27;16.70;99.90
35796;DHT22;21916;52.428;13.302;2023-07-20T06:35:53;16.60;99.90
35796;DHT22;21916;52.428;13.302;2023-07-20T06:38:20;16.60;99.90
35796;DHT22;21916;52.428;13.302;2023-07-20T06:40:46;16.40;99.90
35796;DHT22;21916;52.428;13.302;2023-07-20T06:43:12;16.30;99.90
35796;DHT22;21916;52.428;13.302;2023-07-20T06:45:39;16.30;99.90
35796;DHT22;21916;52.428;13.302;2023-07-20T06:48:05;16.40;99.90
35796;DHT22;21916;52.428;13.302;2023-07-20T06:50:31;16.50;99.90
35796;DHT22;21916;52.428;13.302;2023-07-20T06:52:57;16.50;99.90
35796;DHT22;21916;52.428;13.302;2023-07-20T06:55:24;16.60;99.90
35796;DHT22;21916;52.428;13.302;2023-07-20T06:57:50;16.60;99.90
35796;DHT22;21916;52.428;13.302;2023-07-20T07:00:17;16.70;99.90
35796;DHT22;21916;52.428;13.302;2023-07-20T07:02:43;16.80;99.90
35796;DHT22;21916;52.428;13.302;2023-07-20T07:05:09;16.90;99.90
35796;DHT22;21916;52.428;13.302;2023-07-20T07:07:35;17.00;99.90
35796;DHT22;21916;52.428;13.302;2023-07-20T07:10:01;17.00;99.90
35796;DHT22;21916;52.428;13.302;2023-07-20T07:12:30;17.20;99.90
35796;DHT22;21916;52.428;13.302;2023-07-20T07:14:56;17.40;99.90
35796;DHT22;21916;52.428;13.302;2023-07-20T07:17:22;17.50;99.90
35796;DHT22;21916;52.428;13.302;2023-07-20T07:19:48;17.60;99.90
35796;DHT22;21916;52.428;13.302;2023-07-20T07:22:14;17.80;99.90
35796;DHT22;21916;52.428;13.302;2023-07-20T07:24:40;17.70;99.90
35796;DHT22;21916;52.428;13.302;2023-07-20T07:27:08;17.80;99.90
35796;DHT22;21916;52.428;13.302;2023-07-20T07:29:34;18.10;99.90
35796;DHT22;21916;52.428;13.302;2023-07-20T07:32:00;18.10;99.90
35796;DHT22;21916;52.428;13.302;2023-07-20T07:34:27;18.10;99.90
35796;DHT22;21916;52.428;13.302;2023-07-20T07:36:53;18.10;99.90
35796;DHT22;21916;52.428;13.302;2023-07-20T07:39:19;18.10;99.90
35796;DHT22;21916;52.428;13.302;2023-07-20T07:41:45;18.20;99.90
35796;DHT22;21916;52.428;13.302;2023-07-20T07:44:11;18.20;99.90
35796;DHT22;21916;52.428;13.302;2023-07-20T07:46:37;18.40;99.90
35796;DHT22;21916;52.428;13.302;2023-07-20T07:49:03;18.60;99.90
35796;DHT22;21916;52.428;13.302;2023-07-20T07:51:29;18.60;99.90
35796;DHT22;21916;52.428;13.302;2023-07-20T07:53:55;18.60;99.90
35796;DHT22;21916;52.428;13.302;2023-07-20T07:56:21;18.60;99.90
35796;DHT22;21916;52.428;13.302;2023-07-20T07:58:49;18.60;99.90
35796;DHT22;21916;52.428;13.302;2023-07-20T08:01:17;18.60;99.90
35796;DHT22;21916;52.428;13.302;2023-07-20T08:03:45;18.70;99.90
35796;DHT22;21916;52.428;13.302;2023-07-20T08:06:13;18.90;99.90
35796;DHT22;21916;52.428;13.302;2023-07-20T08:08:39;18.80;99.90
35796;DHT22;21916;52.428;13.302;2023-07-20T08:11:05;18.70;99.90
35796;DHT22;21916;52.428;13.302;2023-07-20T08:13:31;18.70;99.90
35796;DHT22;21916;52.428;13.302;2023-07-20T08:15:57;18.80;99.90
35796;DHT22;21916;52.428;13.302;2023-07-20T08:18:23;18.70;99.90
35796;DHT22;21916;52.428;13.302;2023-07-20T08:20:49;18.40;99.90
35796;DHT22;21916;52.428;13.302;2023-07-20T08:23:15;18.40;99.90
35796;DHT22;21916;52.428;13.302;2023-07-20T08:25:42;18.50;99.90
35796;DHT22;21916;52.428;13.302;2023-07-20T08:28:15;18.60;99.90
35796;DHT22;21916;52.428;13.302;2023-07-20T08:30:48;18.70;99.90
35796;DHT22;21916;52.428;13.302;2023-07-20T08:33:16;18.40;99.90
35796;DHT22;21916;52.428;13.302;2023-07-20T08:35:43;18.40;99.90
35796;DHT22;21916;52.428;13.302;2023-07-20T08:38:09;18.60;99.90
35796;DHT22;21916;52.428;13.302;2023-07-20T08:40:40;19.00;99.90
35796;DHT22;21916;52.428;13.302;2023-07-20T08:43:06;19.00;99.90
35796;DHT22;21916;52.428;13.302;2023-07-20T08:45:36;18.90;99.90
35796;DHT22;21916;52.428;13.302;2023-07-20T08:48:06;18.80;99.90
35796;DHT22;21916;52.428;13.302;2023-07-20T08:50:33;18.80;99.90
35796;DHT22;21916;52.428;13.302;2023-07-20T08:53:00;18.90;99.90
35796;DHT22;21916;52.428;13.302;2023-07-20T08:55:27;19.30;99.90
35796;DHT22;21916;52.428;13.302;2023-07-20T08:58:03;19.30;99.90
35796;DHT22;21916;52.428;13.302;2023-07-20T09:00:30;19.40;99.90
35796;DHT22;21916;52.428;13.302;2023-07-20T09:02:57;19.50;99.90
35796;DHT22;21916;52.428;13.302;2023-07-20T09:05:26;19.50;99.90
35796;DHT22;21916;52.428;13.302;2023-07-20T09:07:52;19.50;99.90
35796;DHT22;21916;52.428;13.302;2023-07-20T09:10:22;19.70;99.90
35796;DHT22;21916;52.428;13.302;2023-07-20T09:12:49;19.40;99.90
35796;DHT22;21916;52.428;13.302;2023-07-20T09:15:15;19.40;99.90
35796;DHT22;21916;52.428;13.302;2023-07-20T09:17:48;19.70;99.90
35796;DHT22;21916;52.428;13.302;2023-07-20T09:20:18;19.80;99.90
35796;DHT22;21916;52.428;13.302;2023-07-20T09:22:44;20.20;99.90
35796;DHT22;21916;52.428;13.302;2023-07-20T09:25:18;20.30;99.90
35796;DHT22;21916;52.428;13.302;2023-07-20T09:27:49;20.30;99.90
35796;DHT22;21916;52.428;13.302;2023-07-20T09:30:16;20.10;99.90
35796;DHT22;21916;52.428;13.302;2023-07-20T09:32:47;20.40;99.90
35796;DHT22;21916;52.428;13.302;2023-07-20T09:35:18;20.40;99.90
35796;DHT22;21916;52.428;13.302;2023-07-20T09:38:00;20.50;99.90
35796;DHT22;21916;52.428;13.302;2023-07-20T09:40:27;20.50;99.90
35796;DHT22;21916;52.428;13.302;2023-07-20T09:42:54;20.60;99.90
35796;DHT22;21916;52.428;13.302;2023-07-20T09:45:30;20.90;99.90
35796;DHT22;21916;52.428;13.302;2023-07-20T09:48:05;21.10;99.90
35796;DHT22;21916;52.428;13.302;2023-07-20T09:50:50;21.30;99.90
35796;DHT22;21916;52.428;13.302;2023-07-20T09:53:17;21.40;99.90
35796;DHT22;21916;52.428;13.302;2023-07-20T09:55:49;21.40;99.90
35796;DHT22;21916;52.428;13.302;2023-07-20T09:58:16;21.30;99.90
35796;DHT22;21916;52.428;13.302;2023-07-20T10:00:43;21.10;99.90
35796;DHT22;21916;52.428;13.302;2023-07-20T10:03:16;20.60;99.90
35796;DHT22;21916;52.428;13.302;2023-07-20T10:05:52;20.30;99.90
35796;DHT22;21916;52.428;13.302;2023-07-20T10:08:24;19.70;99.90
35796;DHT22;21916;52.428;13.302;2023-07-20T10:10:50;19.50;99.90
35796;DHT22;21916;52.428;13.302;2023-07-20T10:13:26;19.40;99.90
35796;DHT22;21916;52.428;13.302;2023-07-20T10:16:03;19.20;99.90
35796;DHT22;21916;52.428;13.302;2023-07-20T10:20:56;19.40;99.90
35796;DHT22;21916;52.428;13.302;2023-07-20T10:23:27;19.60;99.90
35796;DHT22;21916;52.428;13.302;2023-07-20T10:25:54;19.80;99.90
35796;DHT22;21916;52.428;13.302;2023-07-20T10:28:20;20.00;99.90
35796;DHT22;21916;52.428;13.302;2023-07-20T10:30:49;20.40;99.90
35796;DHT22;21916;52.428;13.302;2023-07-20T10:33:17;20.70;99.90
35796;DHT22;21916;52.428;13.302;2023-07-20T10:35:57;20.80;99.90
35796;DHT22;21916;52.428;13.302;2023-07-20T10:41:42;20.20;99.90
35796;DHT22;21916;52.428;13.302;2023-07-20T10:44:08;20.10;99.90
35796;DHT22;21916;52.428;13.302;2023-07-20T10:49:06;20.30;99.90
35796;DHT22;21916;52.428;13.302;2023-07-20T10:51:46;20.40;99.90
35796;DHT22;21916;52.428;13.302;2023-07-20T10:56:43;20.20;99.90
35796;DHT22;21916;52.428;13.302;2023-07-20T10:59:38;20.10;99.90
35796;DHT22;21916;52.428;13.302;2023-07-20T11:02:08;19.80;99.90
35796;DHT22;21916;52.428;13.302;2023-07-20T11:04:41;19.90;99.90
35796;DHT22;21916;52.428;13.302;2023-07-20T11:07:07;19.90;99.90
35796;DHT22;21916;52.428;13.302;2023-07-20T11:09:37;19.80;99.90
35796;DHT22;21916;52.428;13.302;2023-07-20T11:12:17;19.90;99.90
35796;DHT22;21916;52.428;13.302;2023-07-20T11:14:54;19.60;99.90
35796;DHT22;21916;52.428;13.302;2023-07-20T11:17:20;19.30;99.90
35796;DHT22;21916;52.428;13.302;2023-07-20T11:19:49;19.30;99.90
35796;DHT22;21916;52.428;13.302;2023-07-20T11:22:17;19.20;99.90
35796;DHT22;21916;52.428;13.302;2023-07-20T11:24:43;19.00;99.90
35796;DHT22;21916;52.428;13.302;2023-07-20T11:27:09;19.10;99.90
35796;DHT22;21916;52.428;13.302;2023-07-20T11:29:37;19.20;99.90
35796;DHT22;21916;52.428;13.302;2023-07-20T11:32:03;19.30;99.90
35796;DHT22;21916;52.428;13.302;2023-07-20T11:34:31;19.60;99.90
35796;DHT22;21916;52.428;13.302;2023-07-20T11:36:57;19.70;99.90
35796;DHT22;21916;52.428;13.302;2023-07-20T11:39:23;19.70;99.90
35796;DHT22;21916;52.428;13.302;2023-07-20T11:41:55;20.00;99.90
35796;DHT22;21916;52.428;13.302;2023-07-20T11:44:27;20.30;99.90
35796;DHT22;21916;52.428;13.302;2023-07-20T11:49:35;20.70;99.90
35796;DHT22;21916;52.428;13.302;2023-07-20T11:52:05;21.00;99.90
35796;DHT22;21916;52.428;13.302;2023-07-20T11:54:32;21.70;99.90
35796;DHT22;21916;52.428;13.302;2023-07-20T11:57:01;23.10;99.90
35796;DHT22;21916;52.428;13.302;2023-07-20T11:59:27;23.30;99.30
35796;DHT22;21916;52.428;13.302;2023-07-20T12:01:53;22.80;99.90
35796;DHT22;21916;52.428;13.302;2023-07-20T12:04:19;22.50;99.90
35796;DHT22;21916;52.428;13.302;2023-07-20T12:06:48;22.00;99.90
35796;DHT22;21916;52.428;13.302;2023-07-20T12:09:16;21.20;99.90
35796;DHT22;21916;52.428;13.302;2023-07-20T12:11:44;20.70;99.90
35796;DHT22;21916;52.428;13.302;2023-07-20T12:14:12;20.60;99.90
35796;DHT22;21916;52.428;13.302;2023-07-20T12:16:38;20.90;99.90
35796;DHT22;21916;52.428;13.302;2023-07-20T12:19:08;21.30;99.90
35796;DHT22;21916;52.428;13.302;2023-07-20T12:21:36;21.60;99.90
35796;DHT22;21916;52.428;13.302;2023-07-20T12:24:06;21.30;99.90
35796;DHT22;21916;52.428;13.302;2023-07-20T12:26:33;21.20;99.90
35796;DHT22;21916;52.428;13.302;2023-07-20T12:29:00;21.20;99.90
35796;DHT22;21916;52.428;13.302;2023-07-20T12:31:27;20.80;99.90
35796;DHT22;21916;52.428;13.302;2023-07-20T12:33:54;20.80;99.90
35796;DHT22;21916;52.428;13.302;2023-07-20T12:36:23;20.90;99.90
35796;DHT22;21916;52.428;13.302;2023-07-20T12:38:49;21.40;99.90
35796;DHT22;21916;52.428;13.302;2023-07-20T12:41:15;21.50;99.90
35796;DHT22;21916;52.428;13.302;2023-07-20T12:43:50;21.70;99.90
35796;DHT22;21916;52.428;13.302;2023-07-20T12:46:19;21.30;99.90
35796;DHT22;21916;52.428;13.302;2023-07-20T12:48:45;21.60;99.90
35796;DHT22;21916;52.428;13.302;2023-07-20T12:51:11;22.90;99.50
35796;DHT22;21916;52.428;13.302;2023-07-20T12:53:37;23.80;97.80
35796;DHT22;21916;52.428;13.302;2023-07-20T12:56:04;23.90;96.50
35796;DHT22;21916;52.428;13.302;2023-07-20T12:58:30;23.30;96.40
35796;DHT22;21916;52.428;13.302;2023-07-20T13:00:56;22.90;96.70
35796;DHT22;21916;52.428;13.302;2023-07-20T13:03:22;23.00;96.20
35796;DHT22;21916;52.428;13.302;2023-07-20T13:05:48;23.80;96.00
35796;DHT22;21916;52.428;13.302;2023-07-20T13:08:15;24.80;94.70
35796;DHT22;21916;52.428;13.302;2023-07-20T13:10:41;26.20;91.70
35796;DHT22;21916;52.428;13.302;2023-07-20T13:13:07;28.10;90.10
35796;DHT22;21916;52.428;13.302;2023-07-20T13:15:42;29.50;87.90
35796;DHT22;21916;52.428;13.302;2023-07-20T13:18:08;29.50;82.90
35796;DHT22;21916;52.428;13.302;2023-07-20T13:20:34;28.00;83.00
35796;DHT22;21916;52.428;13.302;2023-07-20T13:23:00;26.90;85.20
35796;DHT22;21916;52.428;13.302;2023-07-20T13:25:26;27.60;82.70
35796;DHT22;21916;52.428;13.302;2023-07-20T13:27:51;27.00;81.60
35796;DHT22;21916;52.428;13.302;2023-07-20T13:30:17;26.70;82.60
35796;DHT22;21916;52.428;13.302;2023-07-20T13:32:45;27.10;81.90
35796;DHT22;21916;52.428;13.302;2023-07-20T13:35:12;26.90;83.10
35796;DHT22;21916;52.428;13.302;2023-07-20T13:37:39;27.80;82.50
35796;DHT22;21916;52.428;13.302;2023-07-20T13:40:11;28.80;79.60
35796;DHT22;21916;52.428;13.302;2023-07-20T13:42:40;30.20;78.20
35796;DHT22;21916;52.428;13.302;2023-07-20T13:45:12;30.70;75.50
35796;DHT22;21916;52.428;13.302;2023-07-20T13:47:38;31.70;73.60
35796;DHT22;21916;52.428;13.302;2023-07-20T13:50:05;32.30;72.40
35796;DHT22;21916;52.428;13.302;2023-07-20T13:52:41;32.30;70.70
35796;DHT22;21916;52.428;13.302;2023-07-20T13:55:08;31.80;68.80
35796;DHT22;21916;52.428;13.302;2023-07-20T13:57:34;29.60;70.60
35796;DHT22;21916;52.428;13.302;2023-07-20T14:00:04;27.20;74.40
35796;DHT22;21916;52.428;13.302;2023-07-20T14:02:38;26.10;77.50
35796;DHT22;21916;52.428;13.302;2023-07-20T14:05:05;25.20;78.40
35796;DHT22;21916;52.428;13.302;2023-07-20T14:07:32;24.80;79.00
35796;DHT22;21916;52.428;13.302;2023-07-20T14:09:58;24.20;81.20
35796;DHT22;21916;52.428;13.302;2023-07-20T14:12:24;25.10;80.70
35796;DHT22;21916;52.428;13.302;2023-07-20T14:14:50;27.40;78.20
35796;DHT22;21916;52.428;13.302;2023-07-20T14:17:16;28.70;73.60
35796;DHT22;21916;52.428;13.302;2023-07-20T14:19:43;28.40;73.10
35796;DHT22;21916;52.428;13.302;2023-07-20T14:22:09;28.70;73.30
35796;DHT22;21916;52.428;13.302;2023-07-20T14:24:35;29.60;72.30
35796;DHT22;21916;52.428;13.302;2023-07-20T14:27:01;30.30;69.20
35796;DHT22;21916;52.428;13.302;2023-07-20T14:29:28;30.60;67.80
35796;DHT22;21916;52.428;13.302;2023-07-20T14:32:00;30.00;68.30
35796;DHT22;21916;52.428;13.302;2023-07-20T14:34:31;29.60;67.90
35796;DHT22;21916;52.428;13.302;2023-07-20T14:36:59;29.10;67.60
35796;DHT22;21916;52.428;13.302;2023-07-20T14:39:25;29.40;67.70
35796;DHT22;21916;52.428;13.302;2023-07-20T14:41:51;29.40;67.30
35796;DHT22;21916;52.428;13.302;2023-07-20T14:44:17;29.90;67.50
35796;DHT22;21916;52.428;13.302;2023-07-20T14:46:44;31.20;66.10
35796;DHT22;21916;52.428;13.302;2023-07-20T14:49:09;30.80;64.80
35796;DHT22;21916;52.428;13.302;2023-07-20T14:51:36;30.40;65.40
35796;DHT22;21916;52.428;13.302;2023-07-20T14:54:09;30.40;65.20
35796;DHT22;21916;52.428;13.302;2023-07-20T14:56:38;30.00;64.40
35796;DHT22;21916;52.428;13.302;2023-07-20T14:59:04;29.00;65.40
35796;DHT22;21916;52.428;13.302;2023-07-20T15:01:32;29.20;65.00
35796;DHT22;21916;52.428;13.302;2023-07-20T15:03:58;29.30;65.00
35796;DHT22;21916;52.428;13.302;2023-07-20T15:06:27;27.90;65.80
35796;DHT22;21916;52.428;13.302;2023-07-20T15:08:56;26.70;67.40
35796;DHT22;21916;52.428;13.302;2023-07-20T15:11:22;27.10;67.40
35796;DHT22;21916;52.428;13.302;2023-07-20T15:13:48;28.00;66.80
35796;DHT22;21916;52.428;13.302;2023-07-20T15:16:14;27.90;66.20
35796;DHT22;21916;52.428;13.302;2023-07-20T15:18:40;27.30;67.00
35796;DHT22;21916;52.428;13.302;2023-07-20T15:21:05;27.00;67.30
35796;DHT22;21916;52.428;13.302;2023-07-20T15:23:31;26.60;69.00
35796;DHT22;21916;52.428;13.302;2023-07-20T15:25:57;26.00;69.00
35796;DHT22;21916;52.428;13.302;2023-07-20T15:28:24;24.90;71.20
35796;DHT22;21916;52.428;13.302;2023-07-20T15:30:50;24.40;73.30
35796;DHT22;21916;52.428;13.302;2023-07-20T15:33:23;24.20;73.90
35796;DHT22;21916;52.428;13.302;2023-07-20T15:35:49;23.90;74.10
35796;DHT22;21916;52.428;13.302;2023-07-20T15:38:15;24.10;75.20